TimeEST,TemperatureF,Dew PointF,Humidity,Sea Level PressureIn,VisibilityMPH,Wind Direction,Wind SpeedMPH,Gust SpeedMPH,PrecipitationIn,Events,Conditions,WindDirDegrees,DateUTC
12:51 AM,30.9,26.1,82,30.16,10.0,South,3.5,-,N/A,,Overcast,170,2014-02-09 05:51:00
1:03 AM,30.9,26.1,82,30.07,10.0,SSW,4.6,-,N/A,,Overcast,210,2014-02-09 06:03:00
1:13 AM,30.9,26.1,82,30.07,10.0,SW,4.6,-,N/A,,Overcast,220,2014-02-09 06:13:00
1:51 AM,30.9,27.0,85,30.15,10.0,Calm,Calm,-,N/A,,Overcast,0,2014-02-09 06:51:00
2:51 AM,30.9,27.0,85,30.14,10.0,Calm,Calm,-,N/A,,Overcast,0,2014-02-09 07:51:00
3:51 AM,30.9,27.0,85,30.11,10.0,Calm,Calm,-,N/A,,Overcast,0,2014-02-09 08:51:00
4:36 AM,30.9,27.0,85,30.04,10.0,West,3.5,-,N/A,,Overcast,260,2014-02-09 09:36:00
4:51 AM,30.9,27.0,85,30.13,10.0,WSW,3.5,-,N/A,,Overcast,240,2014-02-09 09:51:00
5:51 AM,32.0,27.0,82,30.14,9.0,SW,6.9,-,N/A,,Overcast,220,2014-02-09 10:51:00
6:10 AM,30.9,28.0,89,30.05,4.0,WSW,5.8,-,0.00,Rain,Light Freezing Rain,240,2014-02-09 11:10:00
6:22 AM,30.9,28.0,89,30.05,4.0,SW,5.8,-,0.00,,Overcast,230,2014-02-09 11:22:00
6:51 AM,30.9,28.9,92,30.12,8.0,South,3.5,-,0.00,,Overcast,170,2014-02-09 11:51:00
7:31 AM,30.9,28.0,89,30.02,10.0,Calm,Calm,-,N/A,,Overcast,0,2014-02-09 12:31:00
7:51 AM,30.9,28.0,89,30.11,9.0,Calm,Calm,-,N/A,,Overcast,0,2014-02-09 12:51:00
8:07 AM,32.0,28.9,88,30.02,8.0,Calm,Calm,-,N/A,,Overcast,0,2014-02-09 13:07:00
8:27 AM,30.9,28.9,92,30.01,2.5,Calm,Calm,-,N/A,,Overcast,0,2014-02-09 13:27:00
8:34 AM,32.0,28.9,88,30.02,5.0,Calm,Calm,-,N/A,,Overcast,0,2014-02-09 13:34:00
8:41 AM,30.9,28.9,92,30.01,6.0,Calm,Calm,-,N/A,,Overcast,0,2014-02-09 13:41:00
8:51 AM,32.0,28.9,88,30.09,6.0,Calm,Calm,-,N/A,,Overcast,0,2014-02-09 13:51:00
9:51 AM,33.1,28.9,85,30.07,8.0,SSW,6.9,-,N/A,,Overcast,200,2014-02-09 14:51:00
10:09 AM,34.0,28.9,82,29.99,10.0,SSW,10.4,-,N/A,,Overcast,210,2014-02-09 15:09:00
10:51 AM,35.1,30.0,82,30.08,4.0,WSW,8.1,-,0.00,Snow,Light Snow,240,2014-02-09 15:51:00
11:22 AM,34.0,30.0,85,30.01,9.0,WSW,10.4,-,0.00,,Overcast,250,2014-02-09 16:22:00
11:51 AM,35.1,30.0,82,30.06,10.0,SW,6.9,-,0.00,,Overcast,220,2014-02-09 16:51:00
11:58 AM,35.1,30.0,82,29.98,10.0,WSW,8.1,-,N/A,,Overcast,240,2014-02-09 16:58:00
12:51 PM,35.1,30.9,85,30.02,4.0,SW,8.1,-,0.00,Snow,Light Snow,220,2014-02-09 17:51:00
1:24 PM,35.1,30.9,85,29.94,5.0,SW,8.1,-,0.00,Rain,Light Rain,230,2014-02-09 18:24:00
1:51 PM,35.1,30.9,85,30.01,6.0,West,10.4,-,0.00,,Overcast,260,2014-02-09 18:51:00
2:51 PM,35.1,32.0,89,30.00,3.0,West,10.4,-,0.01,Rain,Light Rain,260,2014-02-09 19:51:00
2:58 PM,35.1,32.0,89,29.93,2.5,West,11.5,-,0.00,Rain,Light Rain,270,2014-02-09 19:58:00
3:24 PM,34.0,30.9,89,29.94,3.0,West,12.7,-,0.00,Snow,Light Snow,260,2014-02-09 20:24:00
3:44 PM,34.0,30.9,89,29.94,1.8,WNW,8.1,-,0.00,Snow,Light Snow,300,2014-02-09 20:44:00
3:51 PM,33.1,30.9,92,30.02,1.0,NW,9.2,-,0.01,Snow,Light Snow,310,2014-02-09 20:51:00
4:30 PM,33.1,30.0,89,29.96,2.0,WNW,10.4,17.3,0.01,Snow,Light Snow,290,2014-02-09 21:30:00
4:40 PM,32.0,30.0,92,29.96,3.0,WNW,11.5,-,0.01,Snow,Light Snow,290,2014-02-09 21:40:00
4:51 PM,32.0,28.9,88,30.04,4.0,WNW,8.1,-,0.01,Snow,Light Snow,290,2014-02-09 21:51:00
4:57 PM,32.0,28.9,88,29.96,8.0,West,9.2,-,0.00,,Overcast,280,2014-02-09 21:57:00
5:05 PM,32.0,28.9,88,29.96,10.0,WNW,9.2,-,0.00,,Overcast,300,2014-02-09 22:05:00
5:37 PM,32.0,28.9,88,29.98,2.5,WNW,11.5,-,0.00,,Overcast,300,2014-02-09 22:37:00
5:51 PM,30.9,28.0,89,30.06,2.5,WNW,10.4,-,0.00,Snow,Light Snow,290,2014-02-09 22:51:00
5:58 PM,30.9,28.0,89,29.98,4.0,WNW,8.1,-,0.00,Snow,Light Snow,290,2014-02-09 22:58:00
6:23 PM,30.9,28.0,89,30.00,8.0,West,12.7,-,0.00,,Overcast,280,2014-02-09 23:23:00
6:51 PM,30.9,27.0,85,30.12,10.0,West,12.7,23.0,0.00,,Overcast,280,2014-02-09 23:51:00
7:03 PM,30.9,27.0,85,30.04,6.0,NW,12.7,-,0.00,Snow,Light Snow,310,2014-02-10 00:03:00
7:51 PM,30.0,26.1,85,30.15,9.0,WNW,11.5,20.7,0.00,,Overcast,300,2014-02-10 00:51:00
8:37 PM,28.0,25.0,88,30.06,7.0,WNW,8.1,-,0.00,,Overcast,300,2014-02-10 01:37:00
8:51 PM,28.0,25.0,88,30.15,5.0,West,9.2,16.1,0.00,,Overcast,280,2014-02-10 01:51:00
9:51 PM,28.0,25.0,88,30.14,5.0,WNW,8.1,-,N/A,,Overcast,300,2014-02-10 02:51:00
10:35 PM,27.0,24.1,89,30.06,6.0,NW,10.4,-,0.00,Snow,Light Snow,310,2014-02-10 03:35:00
10:51 PM,27.0,24.1,89,30.14,4.0,NW,8.1,-,0.00,Snow,Light Snow,320,2014-02-10 03:51:00
11:06 PM,27.0,24.1,89,30.06,2.5,WNW,6.9,-,0.00,Snow,Light Snow,300,2014-02-10 04:06:00
11:17 PM,27.0,24.1,89,30.05,4.0,NNW,6.9,-,0.00,Snow,Light Snow,330,2014-02-10 04:17:00
11:31 PM,27.0,24.1,89,30.05,2.5,NNW,8.1,-,0.00,Snow,Light Snow,340,2014-02-10 04:31:00
11:51 PM,27.0,24.1,89,30.14,2.0,NNW,6.9,-,0.00,Snow,Light Snow,330,2014-02-10 04:51:00